Time;durP1;ratioP1;P1;durP2;ratioP2;P2;SDS_P1;SDS_P2;PMS_P1;PMS_P2;Temp;Humidity;BMP_temperature;BMP_pressure;BME280_temperature;BME280_humidity;BME280_pressure;Samples;Min_cycle;Max_cycle;Signal;HPM_P1;HPM_P2
2024/02/27 06:01:44;;;;;;;20.40;10.30;;;;;;;;;;5409783;23;20580;-76
2024/02/27 06:04:10;;;;;;;23.83;11.73;;;;;;;;;;5031207;28;20417;-75
2024/02/27 06:06:35;;;;;;;23.77;10.63;;;;;;;;;;5032733;28;20790;-75
2024/02/27 06:09:03;;;;;;;21.73;11.13;;;;;;;;;;5032634;28;20401;-75
2024/02/27 06:11:29;;;;;;;27.53;11.63;;;;;;;;;;5032460;28;20417;-74
2024/02/27 06:13:55;;;;;;;22.20;11.37;;;;;;;;;;5032215;28;20792;-76
2024/02/27 06:16:21;;;;;;;25.23;12.20;;;;;;;;;;5032468;28;20721;-75
2024/02/27 06:18:48;;;;;;;27.37;12.40;;;;;;;;;;5032348;28;20920;-75
2024/02/27 06:24:00;;;;;;;25.40;11.33;;;;;;;;;;5032084;28;20401;-75
2024/02/27 06:26:27;;;;;;;28.87;13.77;;;;;;;;;;5031897;28;20492;-75
2024/02/27 06:28:53;;;;;;;25.57;12.17;;;;;;;;;;5032150;28;20950;-74
2024/02/27 06:31:19;;;;;;;43.10;12.90;;;;;;;;;;5032164;28;20456;-76
2024/02/27 06:33:45;;;;;;;26.73;11.23;;;;;;;;;;5031613;28;20409;-76
2024/02/27 06:36:12;;;;;;;27.87;12.40;;;;;;;;;;5031578;28;20432;-75
2024/02/27 06:38:38;;;;;;;35.60;14.50;;;;;;;;;;5031740;28;20757;-75
2024/02/27 06:41:04;;;;;;;24.53;13.07;;;;;;;;;;5032271;28;20778;-75
2024/02/27 06:43:30;;;;;;;35.97;12.68;;;;;;;;;;5033072;28;20418;-79
2024/02/27 06:45:56;;;;;;;28.80;12.93;;;;;;;;;;5033732;28;20253;-77
2024/02/27 06:48:22;;;;;;;31.27;12.60;;;;;;;;;;5032030;28;20409;-75
2024/02/27 06:50:54;;;;;;;29.13;13.20;;;;;;;;;;5031626;28;20475;-75
2024/02/27 06:53:20;;;;;;;28.40;14.17;;;;;;;;;;5031637;28;20892;-75
2024/02/27 06:55:48;;;;;;;38.40;14.23;;;;;;;;;;5031379;28;20456;-75
2024/02/27 06:58:14;;;;;;;36.70;13.97;;;;;;;;;;5031093;28;20500;-75
2024/02/27 07:00:40;;;;;;;26.03;13.07;;;;;;;;;;5031050;28;20480;-76
2024/02/27 07:03:06;;;;;;;27.33;13.97;;;;;;;;;;5030983;28;20842;-75
2024/02/27 07:05:33;;;;;;;29.23;14.37;;;;;;;;;;5031144;28;20421;-74
2024/02/27 07:07:59;;;;;;;37.77;16.83;;;;;;;;;;5033265;28;20471;-73
2024/02/27 07:10:25;;;;;;;32.77;14.80;;;;;;;;;;5035808;28;20417;-74
2024/02/27 07:12:51;;;;;;;44.57;16.57;;;;;;;;;;5030952;28;20511;-76
2024/02/27 07:15:17;;;;;;;36.00;16.90;;;;;;;;;;5030711;28;20463;-73
2024/02/27 07:17:43;;;;;;;51.40;15.93;;;;;;;;;;5029406;28;20436;-74
2024/02/27 07:20:09;;;;;;;32.37;14.33;;;;;;;;;;5031305;28;20440;-74
2024/02/27 07:22:35;;;;;;;37.97;15.97;;;;;;;;;;5031025;28;20417;-73
2024/02/27 07:25:01;;;;;;;31.70;13.90;;;;;;;;;;5031156;28;20414;-73
2024/02/27 07:27:27;;;;;;;33.20;14.43;;;;;;;;;;5031160;28;20523;-72
2024/02/27 07:29:53;;;;;;;31.90;15.50;;;;;;;;;;5030922;28;20417;-73
2024/02/27 07:32:19;;;;;;;35.73;15.90;;;;;;;;;;5031064;28;20491;-76
2024/02/27 07:34:46;;;;;;;33.57;16.20;;;;;;;;;;5033365;28;20457;-75
2024/02/27 07:37:15;;;;;;;31.00;14.47;;;;;;;;;;5034346;28;20413;-75
2024/02/27 07:39:41;;;;;;;30.13;14.13;;;;;;;;;;5034744;28;20467;-75
2024/02/27 07:42:07;;;;;;;29.83;15.00;;;;;;;;;;5035064;28;20432;-76
2024/02/27 07:44:33;;;;;;;35.27;15.67;;;;;;;;;;5034879;28;20927;-75
2024/02/27 07:46:59;;;;;;;27.27;15.00;;;;;;;;;;5034834;28;20816;-74
2024/02/27 07:49:26;;;;;;;30.43;14.17;;;;;;;;;;5035056;28;20439;-74
2024/02/27 07:51:53;;;;;;;33.10;14.23;;;;;;;;;;5034524;28;20433;-73
2024/02/27 07:54:19;;;;;;;35.40;15.30;;;;;;;;;;5034229;28;20475;-72
2024/02/27 07:56:45;;;;;;;34.03;17.33;;;;;;;;;;5035478;28;20414;-72
2024/02/27 07:59:11;;;;;;;29.90;16.50;;;;;;;;;;5035345;28;20895;-74
2024/02/27 08:01:38;;;;;;;30.13;14.33;;;;;;;;;;5035187;28;20440;-75
2024/02/27 08:04:04;;;;;;;32.23;15.07;;;;;;;;;;5034537;28;20478;-74
2024/02/27 08:06:31;;;;;;;30.57;14.70;;;;;;;;;;5034263;28;20500;-74
2024/02/27 08:08:57;;;;;;;31.37;14.40;;;;;;;;;;5034451;28;20437;-74
2024/02/27 08:11:23;;;;;;;34.43;15.20;;;;;;;;;;5034265;28;20425;-74
2024/02/27 08:13:49;;;;;;;27.03;15.40;;;;;;;;;;5034059;28;20412;-75
2024/02/27 08:16:15;;;;;;;32.80;15.03;;;;;;;;;;5045168;28;20426;-74
2024/02/27 08:18:41;;;;;;;38.53;16.60;;;;;;;;;;5036852;28;20432;-74
2024/02/27 08:21:07;;;;;;;33.90;16.13;;;;;;;;;;5035292;28;20441;-74
2024/02/27 08:23:34;;;;;;;31.90;16.10;;;;;;;;;;5034296;28;20409;-74
2024/02/27 08:26:01;;;;;;;34.80;15.40;;;;;;;;;;5034146;28;20421;-74
2024/02/27 08:28:27;;;;;;;35.40;16.67;;;;;;;;;;5034005;28;20405;-74
2024/02/27 08:30:53;;;;;;;39.57;15.60;;;;;;;;;;5033916;28;20928;-75
2024/02/27 08:33:19;;;;;;;31.73;15.30;;;;;;;;;;5033763;28;20408;-74
2024/02/27 08:35:45;;;;;;;30.40;15.77;;;;;;;;;;5034091;28;20606;-74
2024/02/27 08:38:11;;;;;;;31.83;15.37;;;;;;;;;;5034059;28;20496;-74
2024/02/27 08:40:37;;;;;;;32.10;15.80;;;;;;;;;;5034064;28;20457;-74
2024/02/27 08:43:03;;;;;;;32.43;14.87;;;;;;;;;;5033512;28;20820;-74
2024/02/27 08:45:30;;;;;;;31.80;15.20;;;;;;;;;;5032641;28;20786;-74
2024/02/27 08:47:56;;;;;;;34.97;16.20;;;;;;;;;;5033714;28;20401;-75
2024/02/27 08:50:23;;;;;;;34.73;17.57;;;;;;;;;;5033653;28;20569;-75
2024/02/27 08:52:48;;;;;;;26.77;14.57;;;;;;;;;;5032084;28;20508;-75
2024/02/27 08:55:14;;;;;;;33.37;15.57;;;;;;;;;;5033546;28;21035;-74
2024/02/27 08:57:40;;;;;;;31.77;15.70;;;;;;;;;;5033376;28;20417;-75
2024/02/27 09:00:07;;;;;;;29.97;15.43;;;;;;;;;;5033293;28;20463;-74
2024/02/27 09:02:37;;;;;;;38.40;14.93;;;;;;;;;;5033002;28;20448;-76
2024/02/27 09:05:04;;;;;;;34.37;15.23;;;;;;;;;;5035570;28;20420;-74
2024/02/27 09:07:30;;;;;;;34.53;17.93;;;;;;;;;;5038317;28;20405;-74
2024/02/27 09:09:56;;;;;;;36.00;17.00;;;;;;;;;;5033810;28;20409;-74
2024/02/27 09:12:23;;;;;;;37.53;16.20;;;;;;;;;;5033028;28;20435;-73
2024/02/27 09:14:49;;;;;;;44.37;17.33;;;;;;;;;;5033383;28;20994;-74
2024/02/27 09:17:15;;;;;;;39.43;16.97;;;;;;;;;;5033016;28;20445;-74
2024/02/27 09:19:41;;;;;;;37.00;16.60;;;;;;;;;;5033278;28;20413;-74
2024/02/27 09:22:07;;;;;;;30.33;15.23;;;;;;;;;;5033180;28;20429;-74
2024/02/27 09:24:33;;;;;;;39.27;17.53;;;;;;;;;;5033177;28;20409;-74
2024/02/27 09:26:59;;;;;;;34.63;15.13;;;;;;;;;;5032816;28;20409;-74
2024/02/27 09:29:25;;;;;;;39.27;16.53;;;;;;;;;;5032850;28;20463;-74
2024/02/27 09:31:51;;;;;;;45.77;16.97;;;;;;;;;;5032797;28;20485;-74
2024/02/27 09:34:17;;;;;;;34.90;15.67;;;;;;;;;;5032510;28;20952;-74
2024/02/27 09:36:43;;;;;;;41.67;16.77;;;;;;;;;;5032829;28;20893;-74
2024/02/27 09:39:09;;;;;;;33.67;15.73;;;;;;;;;;5032567;28;20406;-74
2024/02/27 09:41:53;;;;;;;34.73;16.90;;;;;;;;;;5032591;28;20432;-74
2024/02/27 09:44:19;;;;;;;32.53;16.73;;;;;;;;;;5032669;28;20404;-75
2024/02/27 09:46:45;;;;;;;32.23;16.40;;;;;;;;;;5032743;28;20416;-74
2024/02/27 09:49:13;;;;;;;30.23;15.57;;;;;;;;;;5032719;28;20409;-75
2024/02/27 09:51:39;;;;;;;32.47;16.73;;;;;;;;;;5032887;28;20477;-74
2024/02/27 09:54:05;;;;;;;31.60;15.90;;;;;;;;;;5032056;28;20405;-74
2024/02/27 09:56:35;;;;;;;32.93;15.70;;;;;;;;;;5032635;28;20420;-74
2024/02/27 09:59:03;;;;;;;31.10;15.70;;;;;;;;;;5032532;28;20409;-75
2024/02/27 10:01:32;;;;;;;32.80;15.73;;;;;;;;;;5032283;28;20445;-75
2024/02/27 10:03:59;;;;;;;36.03;16.93;;;;;;;;;;5032330;28;20443;-75
2024/02/27 10:06:30;;;;;;;35.83;18.23;;;;;;;;;;5032369;28;20409;-74
2024/02/27 10:08:57;;;;;;;33.53;16.60;;;;;;;;;;5032299;28;20397;-75
2024/02/27 10:11:23;;;;;;;30.00;15.83;;;;;;;;;;5032672;28;20425;-75
2024/02/27 10:13:49;;;;;;;38.07;18.07;;;;;;;;;;5032128;28;20433;-75
2024/02/27 10:16:18;;;;;;;34.70;17.63;;;;;;;;;;5032013;28;20500;-74
2024/02/27 10:18:44;;;;;;;35.73;17.80;;;;;;;;;;5032537;28;20818;-75
2024/02/27 10:21:10;;;;;;;43.07;17.07;;;;;;;;;;5032261;28;20429;-75
2024/02/27 10:23:36;;;;;;;34.47;17.20;;;;;;;;;;5032045;28;20416;-75
2024/02/27 10:26:11;;;;;;;35.10;17.17;;;;;;;;;;5031797;28;20405;-75
2024/02/27 10:28:38;;;;;;;36.67;16.70;;;;;;;;;;5031963;28;20448;-74
2024/02/27 10:31:11;;;;;;;38.67;19.07;;;;;;;;;;5031868;28;20444;-75
2024/02/27 10:33:41;;;;;;;33.70;15.60;;;;;;;;;;5031687;28;20445;-75
2024/02/27 10:36:09;;;;;;;50.27;18.57;;;;;;;;;;5031847;28;20563;-75
2024/02/27 10:38:35;;;;;;;36.90;17.00;;;;;;;;;;5031960;28;20441;-74
2024/02/27 10:41:01;;;;;;;34.83;18.10;;;;;;;;;;5031609;28;20779;-74
2024/02/27 10:43:27;;;;;;;41.47;18.60;;;;;;;;;;5031665;28;20500;-75
2024/02/27 10:45:56;;;;;;;30.63;16.37;;;;;;;;;;5030358;28;20428;-75
2024/02/27 10:48:23;;;;;;;39.50;18.87;;;;;;;;;;5033204;28;20417;-75
2024/02/27 10:50:49;;;;;;;35.83;17.47;;;;;;;;;;5034760;28;20458;-74
2024/02/27 10:53:15;;;;;;;45.00;18.20;;;;;;;;;;5033622;28;20420;-74
2024/02/27 10:55:42;;;;;;;38.73;17.10;;;;;;;;;;5033575;28;20461;-73
2024/02/27 10:58:09;;;;;;;37.50;17.67;;;;;;;;;;5033220;28;20416;-74
2024/02/27 11:00:35;;;;;;;40.13;17.80;;;;;;;;;;5031694;28;20441;-76
2024/02/27 11:03:02;;;;;;;33.43;17.93;;;;;;;;;;5032048;28;20484;-76
2024/02/27 11:05:28;;;;;;;36.97;17.03;;;;;;;;;;5032326;28;20915;-75
2024/02/27 11:07:55;;;;;;;40.87;18.40;;;;;;;;;;5032987;28;20414;-75
2024/02/27 11:10:22;;;;;;;34.30;17.93;;;;;;;;;;5035893;28;20474;-76
2024/02/27 11:12:48;;;;;;;39.30;18.03;;;;;;;;;;5036027;28;20459;-75
2024/02/27 11:15:16;;;;;;;32.27;16.93;;;;;;;;;;5036019;28;20497;-76
2024/02/27 11:17:43;;;;;;;35.10;17.20;;;;;;;;;;5035912;28;20421;-76
2024/02/27 11:20:11;;;;;;;33.60;15.60;;;;;;;;;;5035361;28;20404;-75
2024/02/27 11:22:38;;;;;;;34.77;17.80;;;;;;;;;;5035424;28;20491;-77
2024/02/27 11:25:04;;;;;;;35.60;18.03;;;;;;;;;;5042765;28;20466;-74
2024/02/27 11:27:31;;;;;;;36.87;18.00;;;;;;;;;;5039570;28;20413;-74
2024/02/27 11:29:57;;;;;;;34.27;17.57;;;;;;;;;;5038348;28;20405;-74
2024/02/27 11:32:23;;;;;;;36.50;17.73;;;;;;;;;;5037210;28;20775;-75
2024/02/27 11:34:50;;;;;;;30.67;16.10;;;;;;;;;;5035242;28;20453;-75
2024/02/27 11:37:22;;;;;;;33.87;17.17;;;;;;;;;;5035508;28;20425;-75
2024/02/27 11:39:49;;;;;;;34.13;17.00;;;;;;;;;;5035581;28;20409;-75
2024/02/27 11:42:21;;;;;;;37.23;16.53;;;;;;;;;;5035434;28;20499;-75
2024/02/27 11:45:03;;;;;;;36.40;16.93;;;;;;;;;;5035328;28;20423;-75
2024/02/27 11:47:47;;;;;;;38.87;17.27;;;;;;;;;;5037795;28;20475;-75
2024/02/27 11:50:13;;;;;;;35.37;18.20;;;;;;;;;;5038493;28;20461;-74
2024/02/27 11:52:42;;;;;;;37.60;17.73;;;;;;;;;;5035344;28;20467;-75
2024/02/27 11:55:09;;;;;;;34.00;18.60;;;;;;;;;;5036089;28;20460;-74
2024/02/27 11:57:36;;;;;;;47.97;18.83;;;;;;;;;;5036646;28;20409;-74
2024/02/27 12:00:06;;;;;;;36.60;18.47;;;;;;;;;;5035854;28;20420;-74
2024/02/27 12:02:35;;;;;;;41.23;18.83;;;;;;;;;;5035468;28;20452;-74
2024/02/27 12:05:01;;;;;;;36.00;17.93;;;;;;;;;;5036431;28;20425;-74
2024/02/27 12:07:30;;;;;;;39.37;20.37;;;;;;;;;;5035140;28;20413;-74
2024/02/27 12:10:12;;;;;;;43.20;19.77;;;;;;;;;;5034796;28;20441;-75
2024/02/27 12:12:39;;;;;;;45.83;21.27;;;;;;;;;;5034163;28;20416;-75
2024/02/27 12:15:06;;;;;;;42.13;21.10;;;;;;;;;;5034639;28;20453;-73
2024/02/27 12:17:39;;;;;;;42.73;21.17;;;;;;;;;;5033565;28;20414;-73
2024/02/27 12:20:05;;;;;;;42.07;20.90;;;;;;;;;;5033090;28;20492;-74
2024/02/27 12:22:32;;;;;;;48.63;21.07;;;;;;;;;;5035027;28;20425;-74
2024/02/27 12:24:59;;;;;;;48.27;20.67;;;;;;;;;;5035712;28;20795;-74
2024/02/27 12:27:25;;;;;;;51.13;23.47;;;;;;;;;;5034276;28;20905;-74
2024/02/27 12:29:52;;;;;;;42.97;21.70;;;;;;;;;;5034306;28;20410;-74
2024/02/27 12:32:18;;;;;;;45.27;21.07;;;;;;;;;;5034000;28;20507;-75
2024/02/27 12:34:46;;;;;;;45.27;20.30;;;;;;;;;;5034114;28;20504;-75
2024/02/27 12:37:12;;;;;;;43.23;21.17;;;;;;;;;;5034205;28;20796;-75
2024/02/27 12:39:38;;;;;;;50.40;21.33;;;;;;;;;;5034288;28;20405;-75
2024/02/27 12:42:04;;;;;;;43.10;21.93;;;;;;;;;;5034548;28;20440;-74
2024/02/27 12:44:30;;;;;;;43.70;20.97;;;;;;;;;;5033867;28;20468;-75
2024/02/27 12:46:56;;;;;;;46.93;20.33;;;;;;;;;;5034045;28;20409;-75
2024/02/27 12:49:22;;;;;;;45.77;20.90;;;;;;;;;;5033901;28;20496;-74
2024/02/27 12:51:49;;;;;;;42.30;21.67;;;;;;;;;;5033706;28;20560;-75
2024/02/27 12:54:18;;;;;;;44.67;22.00;;;;;;;;;;5033407;28;20980;-75
2024/02/27 12:56:45;;;;;;;43.60;20.80;;;;;;;;;;5033648;28;20394;-75
2024/02/27 12:59:11;;;;;;;45.90;22.47;;;;;;;;;;5034026;28;20708;-75
2024/02/27 13:01:41;;;;;;;44.00;21.33;;;;;;;;;;5033740;28;20512;-74
2024/02/27 13:04:07;;;;;;;40.30;20.57;;;;;;;;;;5033691;28;20409;-75
2024/02/27 13:06:33;;;;;;;45.90;22.03;;;;;;;;;;5033589;28;20397;-75
2024/02/27 13:08:59;;;;;;;47.83;20.97;;;;;;;;;;5033497;28;20416;-75
2024/02/27 13:11:27;;;;;;;43.80;21.40;;;;;;;;;;5033362;28;20425;-75
2024/02/27 13:13:53;;;;;;;38.70;21.10;;;;;;;;;;5033151;28;20409;-74
2024/02/27 13:16:19;;;;;;;41.27;20.93;;;;;;;;;;5033143;28;20502;-75
2024/02/27 13:18:44;;;;;;;51.63;25.20;;;;;;;;;;5032312;28;20979;-75
2024/02/27 13:21:10;;;;;;;43.40;21.10;;;;;;;;;;5033530;28;20487;-75
2024/02/27 13:23:36;;;;;;;46.03;21.17;;;;;;;;;;5033213;28;20413;-74
2024/02/27 13:26:02;;;;;;;48.47;21.77;;;;;;;;;;5033268;28;20531;-74
2024/02/27 13:28:29;;;;;;;43.07;21.43;;;;;;;;;;5033718;28;20413;-73
2024/02/27 13:30:55;;;;;;;48.97;22.20;;;;;;;;;;5033065;28;20453;-74
2024/02/27 13:33:21;;;;;;;48.37;21.77;;;;;;;;;;5032980;28;20855;-73
2024/02/27 13:35:47;;;;;;;45.27;21.93;;;;;;;;;;5033166;28;20459;-73
2024/02/27 13:38:13;;;;;;;50.40;22.67;;;;;;;;;;5032361;28;20500;-74
2024/02/27 13:40:39;;;;;;;49.53;21.97;;;;;;;;;;5033174;28;20502;-74
2024/02/27 13:43:05;;;;;;;56.43;22.90;;;;;;;;;;5033217;28;20459;-74
2024/02/27 13:45:31;;;;;;;44.37;21.83;;;;;;;;;;5033630;28;20488;-74
2024/02/27 13:47:57;;;;;;;46.93;18.27;;;;;;;;;;5033615;28;20449;-74
2024/02/27 13:50:24;;;;;;;45.67;21.43;;;;;;;;;;5034258;28;20443;-76
2024/02/27 13:52:50;;;;;;;52.20;22.50;;;;;;;;;;5033105;28;20405;-74
2024/02/27 13:55:16;;;;;;;42.40;20.53;;;;;;;;;;5032990;28;20464;-75
2024/02/27 13:57:42;;;;;;;42.33;21.53;;;;;;;;;;5033754;28;20423;-74
2024/02/27 14:00:08;;;;;;;45.10;21.47;;;;;;;;;;5033068;28;20437;-75
2024/02/27 14:02:34;;;;;;;44.17;21.10;;;;;;;;;;5032186;28;20439;-75
2024/02/27 14:05:00;;;;;;;40.30;19.27;;;;;;;;;;5032486;28;20420;-74
2024/02/27 14:07:26;;;;;;;56.50;21.43;;;;;;;;;;5032478;28;20825;-74
2024/02/27 14:09:52;;;;;;;42.37;21.10;;;;;;;;;;5032642;28;20785;-75
2024/02/27 14:12:18;;;;;;;60.33;22.83;;;;;;;;;;5032377;28;20516;-76
2024/02/27 14:14:45;;;;;;;39.33;18.83;;;;;;;;;;5033088;28;20466;-75
2024/02/27 14:17:11;;;;;;;43.87;20.73;;;;;;;;;;5032647;28;20425;-76
2024/02/27 14:19:37;;;;;;;36.63;18.00;;;;;;;;;;5031913;28;20421;-76
2024/02/27 14:22:03;;;;;;;45.23;19.80;;;;;;;;;;5040116;28;20462;-77
2024/02/27 14:24:29;;;;;;;40.70;19.50;;;;;;;;;;5032760;28;20409;-76
2024/02/27 14:26:55;;;;;;;45.37;20.70;;;;;;;;;;5031680;28;20429;-76
2024/02/27 14:29:21;;;;;;;49.47;22.00;;;;;;;;;;5032381;28;20511;-76
2024/02/27 14:31:47;;;;;;;45.23;20.30;;;;;;;;;;5031472;28;20449;-75
2024/02/27 14:34:14;;;;;;;42.33;19.50;;;;;;;;;;5031568;28;20425;-75
2024/02/27 14:36:40;;;;;;;43.57;18.97;;;;;;;;;;5032095;28;20775;-75
2024/02/27 14:39:06;;;;;;;43.63;20.00;;;;;;;;;;5042997;28;20421;-75
2024/02/27 14:41:34;;;;;;;41.13;20.23;;;;;;;;;;5044194;28;20456;-75
2024/02/27 14:44:00;;;;;;;46.50;19.80;;;;;;;;;;5040795;28;20444;-75
2024/02/27 14:46:27;;;;;;;40.83;19.53;;;;;;;;;;5035248;28;20425;-75
2024/02/27 14:48:53;;;;;;;38.57;17.00;;;;;;;;;;5033853;28;20440;-75
2024/02/27 14:51:19;;;;;;;38.33;18.63;;;;;;;;;;5032365;28;20940;-75
2024/02/27 14:53:45;;;;;;;41.60;19.10;;;;;;;;;;5029731;28;20417;-75
2024/02/27 14:56:11;;;;;;;36.47;18.33;;;;;;;;;;5031461;28;20456;-76
2024/02/27 14:58:37;;;;;;;44.90;20.03;;;;;;;;;;5031498;28;20425;-76
2024/02/27 15:01:03;;;;;;;42.10;18.40;;;;;;;;;;5029514;28;20536;-75
2024/02/27 15:03:29;;;;;;;36.63;18.50;;;;;;;;;;5031097;28;20421;-76
2024/02/27 15:05:55;;;;;;;44.13;17.20;;;;;;;;;;5031713;28;20444;-76
2024/02/27 15:08:21;;;;;;;39.13;18.97;;;;;;;;;;5031761;28;20415;-76
2024/02/27 15:10:46;;;;;;;37.87;18.50;;;;;;;;;;5032000;28;20436;-76
2024/02/27 15:13:12;;;;;;;38.33;18.37;;;;;;;;;;5030639;28;20516;-75
2024/02/27 15:15:38;;;;;;;37.60;17.93;;;;;;;;;;5031530;28;20491;-75
2024/02/27 15:18:04;;;;;;;41.70;20.20;;;;;;;;;;5031298;28;20905;-76
2024/02/27 15:20:30;;;;;;;42.23;17.30;;;;;;;;;;5031525;28;20867;-75
2024/02/27 15:22:56;;;;;;;41.77;17.83;;;;;;;;;;5031046;28;20496;-76
2024/02/27 15:25:22;;;;;;;43.17;20.13;;;;;;;;;;5034205;28;20420;-75
2024/02/27 15:27:48;;;;;;;41.37;17.53;;;;;;;;;;5034980;28;20409;-75
2024/02/27 15:30:14;;;;;;;38.20;19.30;;;;;;;;;;5033721;28;20458;-75
2024/02/27 15:32:40;;;;;;;41.10;17.93;;;;;;;;;;5031967;28;20421;-76
2024/02/27 15:35:06;;;;;;;38.03;17.40;;;;;;;;;;5034270;28;20468;-75
2024/02/27 15:37:32;;;;;;;44.90;20.50;;;;;;;;;;5036684;28;20463;-77
2024/02/27 15:39:58;;;;;;;36.23;18.20;;;;;;;;;;5038354;28;20897;-75
2024/02/27 15:42:24;;;;;;;40.70;18.87;;;;;;;;;;5035444;28;20860;-76
2024/02/27 15:44:50;;;;;;;44.50;19.50;;;;;;;;;;5046906;28;20503;-74
2024/02/27 15:47:16;;;;;;;40.77;18.87;;;;;;;;;;5021196;28;20462;-76
2024/02/27 15:49:42;;;;;;;35.27;18.40;;;;;;;;;;5048642;28;20424;-78
2024/02/27 15:52:09;;;;;;;43.80;19.20;;;;;;;;;;5044151;28;20583;-79
2024/02/27 15:54:35;;;;;;;37.10;18.20;;;;;;;;;;5033450;28;20487;-78
2024/02/27 15:57:01;;;;;;;42.20;17.60;;;;;;;;;;5040905;28;20433;-78
2024/02/27 15:59:27;;;;;;;50.47;17.10;;;;;;;;;;5039539;28;20431;-78
2024/02/27 16:01:53;;;;;;;48.03;18.03;;;;;;;;;;5046196;28;20452;-79
2024/02/27 16:04:38;;;;;;;39.00;18.77;;;;;;;;;;5043569;28;20511;-78
2024/02/27 16:07:08;;;;;;;32.07;16.40;;;;;;;;;;5038493;28;20468;-78
2024/02/27 16:09:34;;;;;;;38.33;16.80;;;;;;;;;;5040482;28;20401;-77
2024/02/27 16:12:00;;;;;;;40.03;17.37;;;;;;;;;;5038025;28;20435;-78
2024/02/27 16:14:25;;;;;;;38.87;16.27;;;;;;;;;;5035625;28;20500;-77
2024/02/27 16:16:51;;;;;;;34.27;17.40;;;;;;;;;;5036525;28;20420;-76
2024/02/27 16:19:17;;;;;;;32.77;15.90;;;;;;;;;;5036380;28;20504;-76
2024/02/27 16:21:43;;;;;;;35.30;16.73;;;;;;;;;;5037465;28;20505;-76
2024/02/27 16:24:10;;;;;;;29.07;14.93;;;;;;;;;;5038391;28;20515;-74
2024/02/27 16:26:37;;;;;;;32.13;16.03;;;;;;;;;;5034421;28;20467;-75
2024/02/27 16:29:05;;;;;;;41.27;17.30;;;;;;;;;;5036802;28;20424;-77
2024/02/27 16:31:31;;;;;;;30.63;14.20;;;;;;;;;;5045337;28;20444;-80
2024/02/27 16:33:56;;;;;;;35.33;16.13;;;;;;;;;;5034367;28;20416;-78
2024/02/27 16:36:23;;;;;;;32.63;16.33;;;;;;;;;;5034254;28;20534;-78
2024/02/27 16:38:48;;;;;;;30.43;15.00;;;;;;;;;;5035369;28;20409;-79
2024/02/27 16:41:14;;;;;;;39.63;16.47;;;;;;;;;;5032433;28;20563;-78
2024/02/27 16:43:42;;;;;;;32.33;15.50;;;;;;;;;;5035204;28;20547;-78
2024/02/27 16:46:08;;;;;;;32.77;15.40;;;;;;;;;;5034841;28;20440;-78
2024/02/27 16:48:34;;;;;;;30.80;15.20;;;;;;;;;;5033808;28;20421;-78
2024/02/27 16:51:01;;;;;;;34.30;15.87;;;;;;;;;;5033767;28;20940;-78
2024/02/27 16:53:27;;;;;;;31.50;14.70;;;;;;;;;;5045707;28;20454;-78
2024/02/27 16:55:53;;;;;;;29.77;15.50;;;;;;;;;;5037940;28;20963;-77
2024/02/27 16:58:19;;;;;;;31.43;15.03;;;;;;;;;;5033375;28;20429;-78
2024/02/27 17:00:45;;;;;;;33.03;16.43;;;;;;;;;;5033870;28;20461;-78
2024/02/27 17:03:11;;;;;;;28.87;14.70;;;;;;;;;;5033503;28;20421;-77
2024/02/27 17:05:38;;;;;;;37.87;15.17;;;;;;;;;;5032907;28;20445;-78
2024/02/27 17:08:04;;;;;;;36.00;16.73;;;;;;;;;;5031621;28;20421;-78
2024/02/27 17:10:30;;;;;;;31.53;15.50;;;;;;;;;;5035839;28;20447;-78
2024/02/27 17:12:56;;;;;;;24.80;13.40;;;;;;;;;;5038395;28;20413;-77
2024/02/27 17:15:23;;;;;;;32.77;16.73;;;;;;;;;;5049666;28;20470;-76
2024/02/27 17:17:50;;;;;;;36.03;15.63;;;;;;;;;;5032563;28;20425;-76
2024/02/27 17:20:16;;;;;;;33.03;15.30;;;;;;;;;;5032942;28;20421;-78
2024/02/27 17:22:43;;;;;;;29.00;14.93;;;;;;;;;;5033796;28;20413;-80
2024/02/27 17:25:09;;;;;;;33.37;14.40;;;;;;;;;;5041813;28;20424;-78
2024/02/27 17:27:35;;;;;;;35.93;17.33;;;;;;;;;;5034631;28;20900;-77
2024/02/27 17:30:01;;;;;;;30.70;15.20;;;;;;;;;;5041611;28;20421;-76
2024/02/27 17:32:27;;;;;;;27.70;14.50;;;;;;;;;;5033128;28;20468;-77
2024/02/27 17:34:53;;;;;;;30.47;14.63;;;;;;;;;;5033416;28;20473;-77
2024/02/27 17:37:19;;;;;;;32.10;15.30;;;;;;;;;;5032876;28;20425;-76
2024/02/27 17:39:45;;;;;;;39.40;16.00;;;;;;;;;;5033361;28;20420;-77
2024/02/27 17:42:11;;;;;;;33.63;15.00;;;;;;;;;;5047421;28;20445;-76
2024/02/27 17:44:37;;;;;;;34.57;16.13;;;;;;;;;;5035097;28;20790;-76
2024/02/27 17:47:03;;;;;;;38.60;17.13;;;;;;;;;;5033708;28;20511;-77
2024/02/27 17:49:31;;;;;;;38.70;15.53;;;;;;;;;;5041973;28;20432;-77
2024/02/27 17:51:59;;;;;;;38.73;15.53;;;;;;;;;;5039575;28;20474;-77
2024/02/27 17:54:25;;;;;;;35.40;14.87;;;;;;;;;;5034824;28;20932;-77
2024/02/27 17:56:51;;;;;;;31.17;15.80;;;;;;;;;;5033025;28;20512;-78
2024/02/27 17:59:17;;;;;;;30.43;14.30;;;;;;;;;;5033043;28;20409;-76
2024/02/27 18:01:43;;;;;;;37.07;17.17;;;;;;;;;;5033569;28;20449;-76
2024/02/27 18:04:09;;;;;;;35.63;15.90;;;;;;;;;;5041426;28;20962;-77
2024/02/27 18:06:35;;;;;;;35.70;15.73;;;;;;;;;;5032908;28;20493;-77
2024/02/27 18:09:01;;;;;;;30.60;15.03;;;;;;;;;;5032568;28;20417;-76
2024/02/27 18:11:27;;;;;;;34.70;16.60;;;;;;;;;;5032496;28;20436;-75
2024/02/27 18:13:53;;;;;;;34.30;16.03;;;;;;;;;;5032434;28;20417;-76
2024/02/27 18:16:19;;;;;;;37.93;16.60;;;;;;;;;;5032574;28;20468;-77
2024/02/27 18:18:45;;;;;;;30.20;16.90;;;;;;;;;;5029847;28;20444;-77
2024/02/27 18:21:11;;;;;;;33.23;16.33;;;;;;;;;;5031179;28;20471;-78
2024/02/27 18:23:37;;;;;;;34.50;16.20;;;;;;;;;;5032246;28;20415;-76
2024/02/27 18:26:03;;;;;;;32.53;15.47;;;;;;;;;;5038021;28;20772;-76
2024/02/27 18:28:29;;;;;;;28.40;14.70;;;;;;;;;;5032886;28;20421;-76
2024/02/27 18:30:55;;;;;;;34.60;16.60;;;;;;;;;;5035746;28;20464;-78
2024/02/27 18:33:21;;;;;;;39.17;15.23;;;;;;;;;;5031705;28;20417;-77
2024/02/27 18:35:53;;;;;;;33.10;16.40;;;;;;;;;;5030240;28;20460;-78
2024/02/27 18:38:19;;;;;;;34.07;16.67;;;;;;;;;;5032701;28;20416;-78
2024/02/27 18:40:45;;;;;;;34.10;17.00;;;;;;;;;;5035725;28;20425;-78
2024/02/27 18:43:11;;;;;;;27.60;14.97;;;;;;;;;;5036670;28;20437;-79
2024/02/27 18:45:40;;;;;;;29.53;15.07;;;;;;;;;;5037343;28;20474;-77
2024/02/27 18:48:06;;;;;;;39.83;16.63;;;;;;;;;;5033939;28;20425;-77
2024/02/27 18:50:35;;;;;;;45.17;18.10;;;;;;;;;;5038612;28;20811;-78
2024/02/27 18:53:01;;;;;;;35.50;16.83;;;;;;;;;;5048889;28;20447;-78
2024/02/27 18:55:27;;;;;;;31.87;16.07;;;;;;;;;;5036948;28;20460;-79
2024/02/27 18:57:53;;;;;;;37.63;16.50;;;;;;;;;;5034252;28;20413;-78
2024/02/27 19:00:20;;;;;;;31.80;16.63;;;;;;;;;;5031688;28;20427;-78
2024/02/27 19:02:46;;;;;;;32.40;16.53;;;;;;;;;;5031528;28;20412;-78
2024/02/27 19:05:13;;;;;;;33.50;16.30;;;;;;;;;;5031949;28;20470;-76
2024/02/27 19:07:39;;;;;;;37.00;17.57;;;;;;;;;;5031744;28;20444;-77
2024/02/27 19:10:05;;;;;;;36.23;17.70;;;;;;;;;;5031735;28;20437;-78
2024/02/27 19:12:31;;;;;;;36.07;18.10;;;;;;;;;;5031608;28;20446;-76
2024/02/27 19:14:57;;;;;;;38.90;18.33;;;;;;;;;;5037596;28;20982;-76
2024/02/27 19:17:23;;;;;;;43.07;18.77;;;;;;;;;;5033446;28;20499;-76
2024/02/27 19:19:49;;;;;;;39.33;17.20;;;;;;;;;;5032235;28;20405;-76
2024/02/27 19:22:16;;;;;;;41.47;17.47;;;;;;;;;;5030451;28;20433;-78
2024/02/27 19:24:42;;;;;;;41.10;16.83;;;;;;;;;;5032180;28;20464;-76
2024/02/27 19:27:12;;;;;;;39.43;18.90;;;;;;;;;;5030963;28;20425;-75
2024/02/27 19:29:39;;;;;;;34.47;15.30;;;;;;;;;;5034656;28;20421;-74
2024/02/27 19:32:06;;;;;;;39.27;19.00;;;;;;;;;;5035593;28;20515;-75
2024/02/27 19:34:32;;;;;;;37.03;17.50;;;;;;;;;;5035116;28;20421;-77
2024/02/27 19:36:58;;;;;;;33.77;16.27;;;;;;;;;;5030779;28;20417;-76
2024/02/27 19:39:24;;;;;;;42.90;19.07;;;;;;;;;;5044633;28;20420;-74
2024/02/27 19:41:50;;;;;;;48.70;19.67;;;;;;;;;;5035130;28;20463;-73
2024/02/27 19:44:16;;;;;;;47.50;19.23;;;;;;;;;;5044072;28;20425;-78
2024/02/27 19:46:42;;;;;;;40.60;18.57;;;;;;;;;;5028002;28;20423;-77
2024/02/27 19:49:08;;;;;;;39.60;18.20;;;;;;;;;;5033726;28;20428;-77
2024/02/27 19:51:34;;;;;;;36.53;19.20;;;;;;;;;;5043793;28;20441;-75
2024/02/27 19:54:00;;;;;;;38.13;17.53;;;;;;;;;;5034771;28;20494;-74
2024/02/27 19:56:26;;;;;;;40.67;19.43;;;;;;;;;;5044925;28;21036;-76
2024/02/27 19:58:52;;;;;;;41.60;18.73;;;;;;;;;;5046672;28;20802;-77
2024/02/27 20:01:18;;;;;;;36.60;19.27;;;;;;;;;;5034262;28;20511;-77
2024/02/27 20:03:44;;;;;;;41.47;19.40;;;;;;;;;;5034932;28;20492;-74
2024/02/27 20:06:12;;;;;;;40.80;18.87;;;;;;;;;;5034727;28;20435;-74
2024/02/27 20:08:38;;;;;;;39.77;19.43;;;;;;;;;;5035077;28;20818;-76
2024/02/27 20:11:04;;;;;;;35.53;17.00;;;;;;;;;;5036303;28;20444;-75
2024/02/27 20:13:31;;;;;;;41.80;17.90;;;;;;;;;;5034345;28;20417;-76
2024/02/27 20:15:58;;;;;;;39.73;19.03;;;;;;;;;;5034702;28;20507;-76